Time;durP1;ratioP1;P1;durP2;ratioP2;P2;SDS_P1;SDS_P2;PMS_P1;PMS_P2;Temp;Humidity;BMP_temperature;BMP_pressure;BME280_temperature;BME280_humidity;BME280_pressure;Samples;Min_cycle;Max_cycle;Signal;HPM_P1;HPM_P2
2023/01/28 00:01:57;;;;;;;14.80;6.10;;;2.10;85.50;;;;;;4968550;28;88530;-71
2023/01/28 00:04:23;;;;;;;16.17;6.10;;;2.10;85.60;;;;;;4973765;28;89004;-73
2023/01/28 00:06:49;;;;;;;17.85;6.45;;;2.10;85.60;;;;;;4972017;28;87270;-70
2023/01/28 00:09:14;;;;;;;14.70;5.50;;;2.10;85.60;;;;;;4974771;28;88582;-71
2023/01/28 00:11:41;;;;;;;16.98;6.30;;;2.00;85.70;;;;;;4974616;28;88075;-71
2023/01/28 00:14:09;;;;;;;17.38;5.68;;;2.00;85.80;;;;;;4972821;28;88411;-71
2023/01/28 00:16:35;;;;;;;15.68;5.78;;;2.00;85.80;;;;;;4965184;28;88010;-71
2023/01/28 00:19:01;;;;;;;14.07;5.53;;;2.00;86.00;;;;;;4971392;28;88166;-70
2023/01/28 00:21:26;;;;;;;15.25;5.57;;;2.00;85.90;;;;;;4972704;28;88804;-71
2023/01/28 00:23:54;;;;;;;15.02;5.18;;;2.00;85.90;;;;;;4974083;28;90169;-71
2023/01/28 00:26:21;;;;;;;14.65;5.18;;;2.00;86.10;;;;;;4971308;28;88404;-71
2023/01/28 00:28:47;;;;;;;13.60;5.10;;;2.00;86.20;;;;;;4971379;28;87495;-71
2023/01/28 00:31:19;;;;;;;13.82;5.00;;;2.10;85.90;;;;;;4972862;28;88258;-70
2023/01/28 00:33:47;;;;;;;15.68;4.88;;;2.10;85.70;;;;;;4971550;28;87637;-71
2023/01/28 00:36:13;;;;;;;13.55;5.03;;;2.10;85.80;;;;;;4975993;28;89754;-71
2023/01/28 00:38:41;;;;;;;13.43;4.78;;;2.10;85.70;;;;;;4969510;28;88800;-71
2023/01/28 00:41:12;;;;;;;14.02;5.10;;;2.10;86.00;;;;;;4974808;28;88209;-71
2023/01/28 00:43:39;;;;;;;13.57;5.20;;;2.10;86.00;;;;;;4970166;28;87273;-71
2023/01/28 00:46:06;;;;;;;16.10;5.55;;;2.20;86.00;;;;;;4968366;28;87733;-72
2023/01/28 00:48:32;;;;;;;15.50;5.75;;;2.20;86.00;;;;;;4979649;28;87593;-71
2023/01/28 00:50:58;;;;;;;13.02;5.30;;;2.20;86.10;;;;;;4978572;28;88491;-71
2023/01/28 00:53:24;;;;;;;16.08;5.32;;;2.20;85.80;;;;;;4974194;28;88717;-71
2023/01/28 00:55:50;;;;;;;14.77;5.03;;;2.30;85.70;;;;;;4971312;28;87572;-71
2023/01/28 00:58:15;;;;;;;14.85;5.50;;;2.20;85.40;;;;;;4972758;28;89153;-71
2023/01/28 01:00:41;;;;;;;14.40;5.35;;;2.20;85.60;;;;;;4968417;28;88181;-72
2023/01/28 01:03:07;;;;;;;13.73;4.78;;;2.20;85.90;;;;;;4972202;28;88186;-72
2023/01/28 01:05:33;;;;;;;14.77;5.35;;;2.20;85.80;;;;;;4972819;28;88827;-71
2023/01/28 01:07:59;;;;;;;14.45;5.55;;;2.20;85.80;;;;;;4979066;28;86709;-71
2023/01/28 01:10:25;;;;;;;13.43;4.80;;;2.20;85.90;;;;;;4967865;28;87668;-71
2023/01/28 01:12:51;;;;;;;14.27;5.47;;;2.10;86.00;;;;;;4972979;28;87416;-71
2023/01/28 01:15:17;;;;;;;13.38;5.25;;;2.20;86.30;;;;;;4976300;28;90341;-71
2023/01/28 01:17:46;;;;;;;16.17;4.72;;;2.20;85.30;;;;;;4974185;28;87585;-71
2023/01/28 01:20:18;;;;;;;14.90;5.05;;;2.30;85.20;;;;;;4967626;28;87763;-71
2023/01/28 01:22:43;;;;;;;12.23;4.85;;;2.30;85.00;;;;;;4967406;28;87446;-71
2023/01/28 01:25:11;;;;;;;14.52;4.60;;;2.30;85.20;;;;;;4971995;28;90237;-71
2023/01/28 01:27:36;;;;;;;14.07;5.30;;;2.30;85.30;;;;;;4974758;28;87162;-71
2023/01/28 01:30:02;;;;;;;13.55;4.78;;;2.30;85.10;;;;;;4973685;28;89293;-72
2023/01/28 01:32:30;;;;;;;12.30;4.95;;;2.20;85.20;;;;;;4971238;28;87806;-71
2023/01/28 01:34:55;;;;;;;15.63;4.20;;;2.20;85.20;;;;;;4969821;28;88535;-72
2023/01/28 01:37:21;;;;;;;12.48;4.07;;;2.30;85.30;;;;;;4972150;28;87936;-71
2023/01/28 01:39:47;;;;;;;11.43;4.10;;;2.20;85.20;;;;;;4972850;28;88691;-71
2023/01/28 01:42:14;;;;;;;13.30;5.05;;;2.20;85.20;;;;;;4972927;28;91279;-71
2023/01/28 01:44:56;;;;;;;13.65;5.05;;;2.20;85.30;;;;;;4969684;28;87418;-71
2023/01/28 01:47:47;;;;;;;10.98;4.32;;;2.20;85.10;;;;;;4972368;28;88588;-72
2023/01/28 01:50:30;;;;;;;11.95;3.65;;;2.30;84.70;;;;;;4966658;28;88230;-71
2023/01/28 01:53:02;;;;;;;12.18;4.65;;;2.30;84.70;;;;;;4975598;28;88499;-71
2023/01/28 01:55:32;;;;;;;10.93;4.38;;;2.20;84.70;;;;;;4974823;28;87594;-72
2023/01/28 01:58:04;;;;;;;12.82;5.00;;;2.20;84.90;;;;;;4967868;28;89177;-71
2023/01/28 02:00:30;;;;;;;11.15;4.50;;;2.20;84.80;;;;;;4963746;28;88173;-72
2023/01/28 02:02:57;;;;;;;12.95;4.57;;;2.20;84.80;;;;;;4971238;28;87372;-72
2023/01/28 02:05:24;;;;;;;12.27;4.38;;;2.30;84.90;;;;;;4970604;28;88645;-71
2023/01/28 02:07:54;;;;;;;11.77;4.32;;;2.30;84.50;;;;;;4968795;28;87524;-71
2023/01/28 02:10:21;;;;;;;11.77;4.65;;;2.20;84.50;;;;;;4972909;28;88049;-72
2023/01/28 02:12:55;;;;;;;16.77;5.00;;;2.20;84.80;;;;;;4966298;28;88291;-72
2023/01/28 02:15:24;;;;;;;12.68;4.30;;;2.20;84.90;;;;;;4973088;28;89013;-72
2023/01/28 02:17:51;;;;;;;13.25;4.57;;;2.20;84.90;;;;;;4965395;28;87254;-72
2023/01/28 02:20:53;;;;;;;10.25;3.85;;;2.20;84.90;;;;;;4972102;28;88527;-72
2023/01/28 02:23:56;;;;;;;12.93;4.63;;;2.20;84.80;;;;;;4977432;28;87910;-72
2023/01/28 02:27:10;;;;;;;13.60;4.60;;;2.20;85.00;;;;;;4963179;28;87255;-72
2023/01/28 02:29:53;;;;;;;13.25;4.78;;;2.20;85.00;;;;;;4987172;28;87469;-71
2023/01/28 02:32:34;;;;;;;13.60;4.97;;;2.20;85.00;;;;;;4967570;28;91234;-71
2023/01/28 02:35:12;;;;;;;12.15;4.60;;;2.20;85.10;;;;;;4967824;28;88345;-71
2023/01/28 02:37:44;;;;;;;10.27;4.07;;;2.20;85.00;;;;;;4969739;28;87422;-70
2023/01/28 02:40:23;;;;;;;12.35;4.25;;;2.20;85.40;;;;;;4968985;28;89389;-71
2023/01/28 02:42:49;;;;;;;10.95;4.38;;;2.20;85.10;;;;;;4964327;28;87819;-71
2023/01/28 02:48:21;;;;;;;12.00;4.85;;;2.20;85.00;;;;;;4971638;28;87425;-72
2023/01/28 02:51:30;;;;;;;12.43;5.28;;;2.10;85.30;;;;;;4972096;28;87880;-72
2023/01/28 02:54:43;;;;;;;10.68;3.80;;;2.10;85.20;;;;;;4967087;28;88336;-72
2023/01/28 02:57:27;;;;;;;11.40;4.50;;;2.20;85.20;;;;;;4972946;28;87531;-71
2023/01/28 03:00:10;;;;;;;12.45;4.30;;;2.20;85.10;;;;;;4970970;28;89376;-71
2023/01/28 03:02:53;;;;;;;13.10;4.25;;;2.20;85.00;;;;;;4966297;28;87282;-71
2023/01/28 03:05:37;;;;;;;12.18;4.32;;;2.10;85.00;;;;;;4968149;28;88777;-71
2023/01/28 03:09:21;;;;;;;11.85;4.30;;;2.10;84.90;;;;;;4973773;28;87489;-72
2023/01/28 03:38:57;;;;;;;10.13;4.07;;;2.20;85.30;;;;;;4965793;28;87926;-72
2023/01/28 03:41:25;;;;;;;10.60;4.45;;;2.20;85.20;;;;;;4963567;28;88442;-72
2023/01/28 03:43:52;;;;;;;12.75;4.43;;;2.20;85.00;;;;;;4971487;28;87556;-71
2023/01/28 03:46:18;;;;;;;12.32;4.45;;;2.20;84.90;;;;;;4971411;28;87618;-72
2023/01/28 03:48:44;;;;;;;11.38;4.22;;;2.20;85.00;;;;;;4959010;28;88177;-72
2023/01/28 03:51:10;;;;;;;10.82;4.32;;;2.20;84.70;;;;;;4965629;28;88694;-72
2023/01/28 03:53:37;;;;;;;12.80;4.93;;;2.20;84.70;;;;;;4962141;28;90020;-72
2023/01/28 03:56:02;;;;;;;11.77;4.75;;;2.30;84.90;;;;;;4963708;28;88859;-72
2023/01/28 04:01:13;;;;;;;11.63;4.68;;;2.30;84.90;;;;;;4963871;28;88769;-71
2023/01/28 04:03:38;;;;;;;10.40;4.55;;;2.20;85.10;;;;;;4959900;28;87932;-71
2023/01/28 04:06:07;;;;;;;11.27;4.72;;;2.10;85.30;;;;;;4967325;28;87699;-71
2023/01/28 04:08:33;;;;;;;14.48;3.95;;;2.10;85.50;;;;;;4969145;28;88435;-71
2023/01/28 04:11:14;;;;;;;12.40;5.00;;;2.20;85.40;;;;;;4965930;28;87433;-71
2023/01/28 04:13:40;;;;;;;12.02;4.68;;;2.20;85.40;;;;;;4968106;28;87794;-71
2023/01/28 04:16:07;;;;;;;10.32;4.85;;;2.10;85.70;;;;;;4961757;28;87768;-71
2023/01/28 04:18:33;;;;;;;9.07;4.25;;;2.10;85.40;;;;;;4974544;28;89117;-72
2023/01/28 04:20:59;;;;;;;10.18;4.40;;;2.10;85.60;;;;;;4967532;28;88133;-71
2023/01/28 04:23:25;;;;;;;13.20;4.72;;;2.20;85.60;;;;;;4960020;28;88166;-71
2023/01/28 04:25:51;;;;;;;10.13;4.30;;;2.20;85.50;;;;;;4963630;28;87095;-71
2023/01/28 04:28:17;;;;;;;11.55;4.70;;;2.20;85.40;;;;;;4967030;28;88313;-71
2023/01/28 04:30:42;;;;;;;11.10;4.63;;;2.20;85.00;;;;;;4982820;28;88034;-71
2023/01/28 04:33:08;;;;;;;12.25;5.13;;;2.20;84.90;;;;;;4970281;28;87474;-71
2023/01/28 04:35:34;;;;;;;11.27;4.30;;;2.20;85.00;;;;;;4974111;28;87385;-71
2023/01/28 04:37:59;;;;;;;13.93;5.28;;;2.20;84.80;;;;;;4973299;28;88126;-71
2023/01/28 04:40:25;;;;;;;13.70;4.97;;;2.20;84.90;;;;;;4969565;28;87839;-71
2023/01/28 04:42:55;;;;;;;10.82;4.50;;;2.20;84.70;;;;;;4973075;28;89526;-71
2023/01/28 04:45:21;;;;;;;11.48;4.75;;;2.20;84.30;;;;;;4978329;28;87470;-71
2023/01/28 04:47:47;;;;;;;12.02;5.30;;;2.20;84.50;;;;;;4973965;28;88053;-70
2023/01/28 04:50:14;;;;;;;11.48;4.82;;;2.20;84.70;;;;;;4982071;28;87654;-71
2023/01/28 04:52:39;;;;;;;11.50;4.68;;;2.20;84.60;;;;;;4982151;28;87273;-71
2023/01/28 04:55:05;;;;;;;10.80;4.70;;;2.20;84.60;;;;;;4979864;28;87292;-70
2023/01/28 04:57:31;;;;;;;9.77;4.75;;;2.20;84.70;;;;;;4964666;28;88240;-71
2023/01/28 04:59:57;;;;;;;11.32;4.90;;;2.10;84.70;;;;;;4971698;28;87714;-72
2023/01/28 05:02:23;;;;;;;11.27;4.88;;;2.20;84.80;;;;;;4976500;28;87384;-72
2023/01/28 05:04:48;;;;;;;11.25;5.18;;;2.20;84.70;;;;;;4973202;28;87611;-72
2023/01/28 05:07:14;;;;;;;10.70;4.47;;;2.20;84.50;;;;;;4971430;28;89086;-71
2023/01/28 05:09:40;;;;;;;9.80;4.03;;;2.20;84.50;;;;;;4979034;28;88297;-71
2023/01/28 05:12:05;;;;;;;10.93;4.72;;;2.30;84.20;;;;;;4974631;28;87797;-71
2023/01/28 05:14:31;;;;;;;12.13;4.70;;;2.30;83.90;;;;;;4985382;28;87583;-71
2023/01/28 05:16:57;;;;;;;12.07;5.05;;;2.30;83.90;;;;;;4979702;28;87768;-71
2023/01/28 05:19:22;;;;;;;10.98;4.80;;;2.30;83.90;;;;;;4978554;28;87971;-71
2023/01/28 05:21:48;;;;;;;9.80;4.28;;;2.30;84.60;;;;;;4972564;28;87528;-71
2023/01/28 05:24:14;;;;;;;12.55;5.22;;;2.30;83.80;;;;;;4976614;28;86794;-71
2023/01/28 05:26:41;;;;;;;9.98;4.63;;;2.30;83.80;;;;;;4978954;28;87979;-70
2023/01/28 05:29:06;;;;;;;10.05;4.70;;;2.30;83.70;;;;;;4982788;28;87439;-71
2023/01/28 05:31:32;;;;;;;9.60;4.57;;;2.30;83.80;;;;;;4972879;28;90124;-71
2023/01/28 05:33:58;;;;;;;12.77;4.90;;;2.30;83.40;;;;;;4973310;28;87340;-71
2023/01/28 05:36:24;;;;;;;10.68;4.85;;;2.30;83.20;;;;;;4976363;28;89028;-71
2023/01/28 05:38:50;;;;;;;10.30;4.25;;;2.30;83.40;;;;;;4975152;28;88102;-71
2023/01/28 05:41:16;;;;;;;11.27;4.57;;;2.30;83.10;;;;;;4968685;28;89692;-71
2023/01/28 05:43:42;;;;;;;10.65;4.53;;;2.30;83.10;;;;;;4963050;28;88664;-71
2023/01/28 05:46:07;;;;;;;10.18;4.72;;;2.30;83.20;;;;;;4967543;28;88548;-70
2023/01/28 05:48:33;;;;;;;14.55;4.80;;;2.40;83.00;;;;;;4969416;28;88065;-71
2023/01/28 05:50:59;;;;;;;11.88;5.22;;;2.30;83.00;;;;;;4968299;28;87484;-71
2023/01/28 05:53:24;;;;;;;13.52;5.30;;;2.30;83.00;;;;;;4971021;28;87505;-71
2023/01/28 05:55:54;;;;;;;13.27;5.35;;;2.30;82.90;;;;;;4971665;28;88996;-71
2023/01/28 05:58:20;;;;;;;15.15;5.45;;;2.30;83.10;;;;;;4975375;28;88335;-71
2023/01/28 06:00:46;;;;;;;10.82;5.03;;;2.30;83.30;;;;;;4977164;28;87521;-71
2023/01/28 06:03:12;;;;;;;12.63;5.22;;;2.30;83.20;;;;;;4963201;28;87154;-71
2023/01/28 06:05:38;;;;;;;12.07;5.22;;;2.20;82.80;;;;;;4968767;28;89166;-71
2023/01/28 06:08:05;;;;;;;10.52;5.13;;;2.20;82.90;;;;;;4974973;28;88042;-71
2023/01/28 06:10:30;;;;;;;11.60;5.13;;;2.20;82.90;;;;;;4968463;28;87993;-71
2023/01/28 06:12:56;;;;;;;10.88;4.82;;;2.20;82.80;;;;;;4981127;28;87538;-72
2023/01/28 06:15:22;;;;;;;11.88;4.63;;;2.20;82.70;;;;;;4963211;28;87519;-71
2023/01/28 06:17:48;;;;;;;10.93;4.93;;;2.10;83.00;;;;;;4968147;28;88375;-72
2023/01/28 06:20:15;;;;;;;12.65;5.10;;;2.20;82.80;;;;;;4968561;28;88791;-71
2023/01/28 06:22:41;;;;;;;9.85;4.05;;;2.10;82.80;;;;;;4971892;28;87430;-72
2023/01/28 06:25:08;;;;;;;11.57;4.55;;;2.10;83.10;;;;;;4975397;28;87089;-71
2023/01/28 06:27:34;;;;;;;12.63;5.07;;;2.10;82.70;;;;;;4977668;28;89452;-71
2023/01/28 06:30:00;;;;;;;12.00;4.65;;;2.20;82.60;;;;;;4987403;28;87465;-71
2023/01/28 06:32:27;;;;;;;13.32;5.10;;;2.20;82.60;;;;;;4986914;28;87107;-71
2023/01/28 06:34:52;;;;;;;10.60;4.93;;;2.20;82.70;;;;;;4984654;28;88278;-71
2023/01/28 06:37:18;;;;;;;11.57;5.07;;;2.20;82.80;;;;;;4977622;28;87845;-72
2023/01/28 06:39:44;;;;;;;10.60;5.22;;;2.20;82.80;;;;;;4972777;28;87711;-71
2023/01/28 06:42:10;;;;;;;10.82;5.00;;;2.20;83.10;;;;;;4978081;28;87511;-72
2023/01/28 06:44:35;;;;;;;10.63;4.80;;;2.20;82.60;;;;;;4975158;28;90034;-72
2023/01/28 06:47:01;;;;;;;12.13;5.32;;;2.20;82.40;;;;;;4991188;28;88949;-71
2023/01/28 06:49:27;;;;;;;9.90;4.75;;;2.10;82.60;;;;;;4971278;28;87466;-71
2023/01/28 06:51:53;;;;;;;9.93;4.90;;;2.10;82.60;;;;;;4975591;28;87462;-71
2023/01/28 06:54:18;;;;;;;11.80;5.43;;;2.20;82.50;;;;;;4975989;28;90426;-71
2023/01/28 06:56:44;;;;;;;9.68;4.93;;;2.20;81.90;;;;;;4979342;28;88899;-71
2023/01/28 06:59:09;;;;;;;11.05;5.05;;;2.20;81.80;;;;;;4977487;28;87198;-71
2023/01/28 07:01:35;;;;;;;11.60;4.82;;;2.30;81.70;;;;;;4977878;28;86697;-70
2023/01/28 07:04:01;;;;;;;10.25;4.88;;;2.20;81.50;;;;;;4975973;28;87509;-71
2023/01/28 07:06:26;;;;;;;10.77;5.20;;;2.20;81.70;;;;;;4987798;28;87684;-71
2023/01/28 07:08:52;;;;;;;12.32;5.22;;;2.20;81.90;;;;;;4976856;28;88519;-71
2023/01/28 07:11:18;;;;;;;11.90;5.13;;;2.10;82.10;;;;;;4964032;28;89487;-71
2023/01/28 07:13:47;;;;;;;12.35;5.22;;;2.10;82.40;;;;;;4959703;28;87569;-71
2023/01/28 07:16:13;;;;;;;12.02;5.30;;;2.20;82.40;;;;;;4972426;28;87493;-71
2023/01/28 07:18:39;;;;;;;11.13;5.15;;;2.20;82.20;;;;;;4976761;28;87376;-72
2023/01/28 07:21:04;;;;;;;12.13;5.65;;;2.30;82.20;;;;;;4968461;28;88533;-71
2023/01/28 07:23:30;;;;;;;13.02;5.53;;;2.30;82.00;;;;;;4973104;28;88243;-72
2023/01/28 07:26:03;;;;;;;10.73;4.97;;;2.30;81.60;;;;;;4962917;28;87122;-72
2023/01/28 07:28:28;;;;;;;10.75;5.10;;;2.30;80.90;;;;;;4978633;28;87635;-72
2023/01/28 07:30:54;;;;;;;10.98;4.90;;;2.40;80.60;;;;;;4966153;28;89624;-72
2023/01/28 07:33:20;;;;;;;12.65;5.50;;;2.40;80.70;;;;;;4972410;28;88468;-71
2023/01/28 07:35:46;;;;;;;11.60;4.97;;;2.40;81.00;;;;;;4980970;28;88227;-72
2023/01/28 07:38:12;;;;;;;12.27;5.30;;;2.40;80.90;;;;;;4969398;28;87988;-72
2023/01/28 07:40:38;;;;;;;12.85;5.80;;;2.40;80.90;;;;;;4973713;28;87463;-72
2023/01/28 07:43:06;;;;;;;12.68;5.53;;;2.50;80.90;;;;;;4969162;28;88483;-72
2023/01/28 07:45:32;;;;;;;15.93;5.90;;;2.50;80.90;;;;;;4975907;28;87203;-71
2023/01/28 07:48:04;;;;;;;12.30;5.72;;;2.50;80.80;;;;;;4974798;28;87510;-72
2023/01/28 07:50:33;;;;;;;11.02;5.40;;;2.60;80.40;;;;;;4983494;28;86894;-71
2023/01/28 07:53:01;;;;;;;11.02;5.40;;;2.60;81.10;;;;;;4978512;28;88095;-70
2023/01/28 07:55:27;;;;;;;11.45;5.20;;;2.60;80.30;;;;;;4989740;28;90162;-71
2023/01/28 07:57:54;;;;;;;13.35;5.30;;;2.60;80.30;;;;;;4986636;28;87985;-72
2023/01/28 08:00:22;;;;;;;12.20;5.47;;;2.70;80.40;;;;;;4981158;28;87787;-71
2023/01/28 08:02:48;;;;;;;13.68;5.57;;;2.70;79.50;;;;;;4975812;28;87641;-71
2023/01/28 08:05:19;;;;;;;14.73;6.32;;;2.70;79.30;;;;;;4965281;28;88271;-71
2023/01/28 08:07:45;;;;;;;13.23;5.60;;;2.80;79.20;;;;;;4977645;28;87452;-74
2023/01/28 08:10:11;;;;;;;12.45;5.85;;;2.80;79.00;;;;;;4977568;28;87639;-70
2023/01/28 08:12:38;;;;;;;13.27;5.93;;;2.90;79.20;;;;;;4990851;28;87244;-72
2023/01/28 08:15:04;;;;;;;12.35;5.07;;;2.90;79.20;;;;;;4980683;28;87506;-72
2023/01/28 08:17:30;;;;;;;14.13;5.45;;;2.90;78.70;;;;;;4977020;28;87290;-72
2023/01/28 08:19:56;;;;;;;11.55;5.57;;;3.00;79.00;;;;;;4967590;28;87466;-71
2023/01/28 08:22:26;;;;;;;17.20;6.03;;;2.90;79.20;;;;;;4968739;28;89527;-71
2023/01/28 08:24:52;;;;;;;14.98;6.07;;;3.00;79.10;;;;;;4966349;28;88836;-71
2023/01/28 08:27:18;;;;;;;13.27;5.15;;;2.90;79.00;;;;;;4974668;28;87712;-71
2023/01/28 08:29:43;;;;;;;11.82;4.53;;;2.90;79.10;;;;;;4978519;28;87529;-72
2023/01/28 08:32:10;;;;;;;13.10;5.18;;;2.80;78.70;;;;;;4982200;28;88799;-72
2023/01/28 08:34:35;;;;;;;14.07;5.63;;;2.90;78.90;;;;;;4976221;28;87971;-73
2023/01/28 08:37:01;;;;;;;14.52;6.03;;;3.00;78.60;;;;;;4978794;28;87312;-72
2023/01/28 08:39:27;;;;;;;15.48;6.40;;;3.10;79.50;;;;;;4972945;28;87101;-71
2023/01/28 08:41:52;;;;;;;13.00;5.55;;;3.30;79.50;;;;;;4973556;28;89191;-71
2023/01/28 08:44:18;;;;;;;12.57;5.40;;;3.40;78.30;;;;;;4971440;28;87572;-71
2023/01/28 08:46:44;;;;;;;14.77;5.75;;;3.50;76.70;;;;;;4980519;28;88368;-72
2023/01/28 08:49:09;;;;;;;13.90;5.28;;;3.60;76.90;;;;;;4976803;28;87730;-71
2023/01/28 08:51:35;;;;;;;13.68;5.78;;;3.60;75.70;;;;;;4978113;28;88201;-72
2023/01/28 08:54:01;;;;;;;13.38;5.38;;;3.70;76.40;;;;;;4964116;28;89377;-73
2023/01/28 08:56:27;;;;;;;19.30;7.90;;;4.00;76.00;;;;;;4966209;28;87498;-72
2023/01/28 08:58:52;;;;;;;17.00;7.00;;;4.10;75.70;;;;;;4959293;28;88942;-71
2023/01/28 09:01:18;;;;;;;13.73;6.07;;;4.30;74.20;;;;;;4952634;28;88426;-71
2023/01/28 09:03:43;;;;;;;14.10;5.10;;;4.30;73.00;;;;;;4966944;28;87880;-72
2023/01/28 09:06:09;;;;;;;15.02;7.03;;;4.40;73.50;;;;;;4966027;28;88450;-73
2023/01/28 09:08:35;;;;;;;17.77;7.75;;;4.60;73.90;;;;;;4963338;28;87946;-73
2023/01/28 09:11:01;;;;;;;16.38;6.07;;;4.80;73.00;;;;;;4962679;28;89828;-72
2023/01/28 09:13:27;;;;;;;12.23;5.70;;;4.70;71.90;;;;;;4974471;28;88239;-72
2023/01/28 09:15:53;;;;;;;14.95;5.88;;;4.60;71.40;;;;;;4977480;28;87652;-72
2023/01/28 09:18:19;;;;;;;12.73;5.60;;;4.50;71.70;;;;;;4963926;28;87685;-73
2023/01/28 09:20:45;;;;;;;12.93;5.40;;;4.40;71.60;;;;;;4957848;28;88444;-72
2023/01/28 09:23:11;;;;;;;11.82;5.88;;;4.40;71.80;;;;;;4981770;28;87151;-72
2023/01/28 09:25:37;;;;;;;19.38;8.18;;;4.40;72.00;;;;;;4984394;28;87571;-72
2023/01/28 09:28:03;;;;;;;29.80;10.80;;;4.50;72.20;;;;;;4981753;28;86401;-72
2023/01/28 09:30:30;;;;;;;14.48;6.22;;;4.50;72.00;;;;;;4966158;28;87123;-73
2023/01/28 09:32:57;;;;;;;14.65;6.03;;;4.50;72.10;;;;;;4987171;28;87656;-72
2023/01/28 09:35:23;;;;;;;13.02;6.13;;;4.30;72.60;;;;;;4971016;28;88741;-72
2023/01/28 09:37:49;;;;;;;13.85;6.22;;;4.20;72.60;;;;;;4978611;28;87221;-73
2023/01/28 09:40:27;;;;;;;16.85;6.88;;;4.10;73.40;;;;;;4980154;28;87915;-72
2023/01/28 09:43:24;;;;;;;13.52;6.40;;;4.10;73.60;;;;;;4979393;28;88119;-73
2023/01/28 09:45:54;;;;;;;15.02;5.95;;;4.00;73.90;;;;;;4967562;28;87443;-73
2023/01/28 09:48:25;;;;;;;15.57;6.78;;;3.90;74.10;;;;;;4977343;28;88279;-73
2023/01/28 09:50:53;;;;;;;18.02;6.72;;;3.90;73.70;;;;;;4979711;28;87667;-72
2023/01/28 09:53:22;;;;;;;21.25;7.50;;;4.00;74.10;;;;;;4979688;28;87816;-72
2023/01/28 09:56:03;;;;;;;15.10;6.45;;;4.10;74.40;;;;;;4963856;28;87771;-72
2023/01/28 09:58:31;;;;;;;19.48;6.60;;;4.00;73.30;;;;;;4972903;28;87529;-72
2023/01/28 10:01:21;;;;;;;18.25;6.68;;;3.90;73.40;;;;;;4963231;28;89515;-71
2023/01/28 10:03:57;;;;;;;15.73;7.03;;;3.90;73.40;;;;;;4975274;28;89201;-72
2023/01/28 10:06:33;;;;;;;19.88;6.90;;;4.00;73.50;;;;;;4966670;28;87546;-72
2023/01/28 10:09:27;;;;;;;13.00;6.25;;;4.10;74.10;;;;;;4980932;28;87237;-72
2023/01/28 10:11:59;;;;;;;14.75;6.78;;;4.30;73.20;;;;;;4977552;28;88218;-72
2023/01/28 10:14:46;;;;;;;17.48;7.53;;;4.50;73.20;;;;;;4979305;28;87584;-72
2023/01/28 10:17:18;;;;;;;18.52;7.15;;;4.60;71.80;;;;;;4979111;28;87207;-73
2023/01/28 10:19:52;;;;;;;15.52;7.25;;;4.50;71.90;;;;;;4974722;28;88438;-72
2023/01/28 10:22:27;;;;;;;15.70;6.55;;;4.40;71.80;;;;;;4965647;28;88723;-73
2023/01/28 10:25:05;;;;;;;20.88;7.72;;;4.10;72.40;;;;;;4965649;28;89356;-73
2023/01/28 10:27:32;;;;;;;15.80;6.10;;;4.10;72.90;;;;;;4959179;28;90320;-73
2023/01/28 10:30:08;;;;;;;17.83;6.95;;;4.20;73.20;;;;;;4971620;28;87388;-73
2023/01/28 10:32:42;;;;;;;15.02;6.47;;;4.20;73.30;;;;;;4967189;28;87940;-72
2023/01/28 10:35:08;;;;;;;16.45;6.40;;;4.20;72.50;;;;;;4968114;28;89112;-73
2023/01/28 10:37:37;;;;;;;18.08;6.22;;;4.00;73.00;;;;;;4964198;28;87117;-71
2023/01/28 10:40:03;;;;;;;14.32;6.47;;;3.90;72.80;;;;;;4969916;28;87765;-71
2023/01/28 10:42:32;;;;;;;16.38;6.35;;;3.90;73.00;;;;;;4975453;28;91053;-71
2023/01/28 10:45:19;;;;;;;15.52;6.15;;;3.80;73.90;;;;;;4977960;28;87445;-72
2023/01/28 10:47:58;;;;;;;15.52;6.50;;;3.80;73.20;;;;;;4975027;28;87062;-71
2023/01/28 10:50:27;;;;;;;19.25;6.97;;;3.90;72.90;;;;;;4986228;28;87305;-72
2023/01/28 10:53:03;;;;;;;15.98;6.10;;;4.00;72.90;;;;;;4976873;28;88604;-72
2023/01/28 10:55:33;;;;;;;15.00;6.28;;;4.10;72.70;;;;;;4968810;28;87502;-73
2023/01/28 10:58:01;;;;;;;16.90;6.80;;;4.20;72.20;;;;;;4974264;28;87432;-71
2023/01/28 11:00:33;;;;;;;17.58;5.72;;;4.40;72.00;;;;;;4974681;28;87516;-72
2023/01/28 11:02:58;;;;;;;15.57;7.38;;;4.40;70.70;;;;;;4969610;28;88074;-72
2023/01/28 11:05:26;;;;;;;15.30;6.43;;;4.30;70.90;;;;;;4977996;28;87426;-71
2023/01/28 11:08:11;;;;;;;15.65;6.70;;;4.30;70.60;;;;;;4983335;28;87485;-71
2023/01/28 11:10:39;;;;;;;15.57;6.28;;;4.30;70.90;;;;;;4972598;28;86748;-73
2023/01/28 11:13:06;;;;;;;14.95;5.47;;;4.30;71.40;;;;;;4976546;28;87765;-73
2023/01/28 11:15:32;;;;;;;19.33;7.57;;;4.40;71.00;;;;;;4975960;28;87828;-70
2023/01/28 11:18:01;;;;;;;18.65;6.32;;;4.40;70.40;;;;;;4985807;28;88462;-73
2023/01/28 11:20:30;;;;;;;13.68;6.00;;;4.20;70.50;;;;;;4965040;28;89084;-71
2023/01/28 11:22:57;;;;;;;16.13;6.78;;;4.20;70.20;;;;;;4959175;28;88593;-71
2023/01/28 11:25:32;;;;;;;17.10;6.70;;;4.20;70.50;;;;;;4965734;28;88877;-71
2023/01/28 11:28:00;;;;;;;13.13;5.50;;;4.10;70.80;;;;;;4965254;28;89652;-71
2023/01/28 11:30:29;;;;;;;12.68;5.93;;;4.00;70.60;;;;;;4966701;28;88145;-71
2023/01/28 11:33:16;;;;;;;12.18;5.40;;;4.00;71.00;;;;;;4962201;28;88513;-73
2023/01/28 11:35:51;;;;;;;14.02;6.35;;;4.00;70.70;;;;;;4966628;28;87157;-71
2023/01/28 11:38:19;;;;;;;15.48;6.38;;;4.00;71.30;;;;;;4965003;28;87728;-71
2023/01/28 11:40:52;;;;;;;16.50;6.35;;;4.10;71.30;;;;;;4968543;28;87456;-73
2023/01/28 11:43:30;;;;;;;11.57;4.70;;;4.10;70.90;;;;;;4961256;28;89930;-71
2023/01/28 11:46:18;;;;;;;12.93;5.68;;;4.10;70.60;;;;;;4964574;28;90536;-71
2023/01/28 11:48:46;;;;;;;14.93;6.00;;;4.20;70.60;;;;;;4962823;28;88757;-71
2023/01/28 11:51:32;;;;;;;12.07;5.20;;;4.20;71.20;;;;;;4971642;28;89306;-71
2023/01/28 11:54:38;;;;;;;13.32;5.07;;;4.30;70.50;;;;;;4964334;28;88169;-71
2023/01/28 11:57:31;;;;;;;12.60;5.80;;;4.20;70.40;;;;;;4959197;28;87438;-73
2023/01/28 12:00:34;;;;;;;11.55;5.28;;;4.20;70.90;;;;;;4965066;28;87391;-73
2023/01/28 12:03:27;;;;;;;13.55;5.50;;;4.10;70.80;;;;;;4962808;28;88436;-73
2023/01/28 12:06:17;;;;;;;12.02;4.53;;;4.10;70.80;;;;;;4973290;28;87673;-70
2023/01/28 12:08:54;;;;;;;14.18;5.65;;;4.10;70.30;;;;;;4974242;28;88071;-73
2023/01/28 12:14:52;;;;;;;12.02;4.82;;;4.00;70.40;;;;;;4972054;28;88962;-73
2023/01/28 12:17:34;;;;;;;13.00;5.07;;;4.00;70.10;;;;;;4976220;28;88190;-72
2023/01/28 12:20:26;;;;;;;10.55;4.53;;;3.90;70.30;;;;;;4965172;28;87540;-72
2023/01/28 12:23:25;;;;;;;12.63;5.00;;;3.90;71.00;;;;;;4967544;28;87134;-72
2023/01/28 12:26:18;;;;;;;14.35;5.10;;;3.90;71.30;;;;;;4973001;28;87556;-72
2023/01/28 12:29:10;;;;;;;11.43;4.50;;;3.90;71.10;;;;;;4976282;28;88184;-72
2023/01/28 12:31:57;;;;;;;11.38;5.10;;;3.90;70.70;;;;;;4982836;28;88018;-72
2023/01/28 12:34:42;;;;;;;15.23;5.75;;;4.00;71.30;;;;;;4974327;28;87440;-73
2023/01/28 12:37:15;;;;;;;12.65;5.15;;;4.00;71.20;;;;;;4964329;28;87255;-72
2023/01/28 12:40:09;;;;;;;11.50;5.20;;;3.90;70.90;;;;;;4964108;28;88093;-72
2023/01/28 12:42:37;;;;;;;11.98;5.10;;;3.90;70.90;;;;;;4970707;28;88329;-72
2023/01/28 12:45:41;;;;;;;14.45;5.57;;;4.00;71.60;;;;;;4974603;28;87406;-73
2023/01/28 12:48:26;;;;;;;11.52;5.35;;;4.10;70.80;;;;;;4979419;28;87139;-72
2023/01/28 12:51:02;;;;;;;12.50;5.22;;;4.10;70.20;;;;;;4970006;28;88192;-72
2023/01/28 12:53:41;;;;;;;14.05;5.60;;;4.10;70.50;;;;;;4967655;28;88838;-73
2023/01/28 12:56:28;;;;;;;15.80;5.75;;;4.10;71.00;;;;;;4982349;28;89177;-72
2023/01/28 12:59:01;;;;;;;13.25;5.00;;;4.10;71.40;;;;;;4978721;28;87342;-72
2023/01/28 13:02:01;;;;;;;11.70;4.45;;;4.20;71.70;;;;;;4969641;28;88475;-72
2023/01/28 13:05:05;;;;;;;11.57;5.25;;;4.20;70.80;;;;;;4976167;28;87627;-72
2023/01/28 13:07:50;;;;;;;13.52;5.50;;;4.20;70.80;;;;;;4976751;28;88292;-72
2023/01/28 13:10:23;;;;;;;14.45;6.22;;;4.30;71.20;;;;;;4973161;28;87901;-72
2023/01/28 13:12:50;;;;;;;13.57;5.35;;;4.40;70.80;;;;;;4978836;28;88783;-73
2023/01/28 13:15:18;;;;;;;15.23;6.05;;;4.40;71.10;;;;;;4984741;28;87637;-73
2023/01/28 13:18:32;;;;;;;17.67;6.30;;;4.30;70.50;;;;;;4976521;28;87570;-73
2023/01/28 13:20:59;;;;;;;12.52;5.40;;;4.30;70.90;;;;;;4978292;28;87322;-73
2023/01/28 13:23:39;;;;;;;16.08;6.30;;;4.30;70.60;;;;;;4990532;28;87615;-73
2023/01/28 13:26:20;;;;;;;12.20;5.47;;;4.30;71.10;;;;;;4980580;28;87448;-71
2023/01/28 13:28:47;;;;;;;13.45;4.85;;;4.30;70.50;;;;;;4983872;28;88045;-72
2023/01/28 13:31:16;;;;;;;11.52;4.70;;;4.20;70.10;;;;;;4981077;28;87344;-72
2023/01/28 13:34:02;;;;;;;10.25;4.72;;;4.20;69.90;;;;;;4979461;28;88575;-72
2023/01/28 13:36:44;;;;;;;13.57;5.22;;;4.10;70.40;;;;;;4976212;28;87218;-71
2023/01/28 13:39:13;;;;;;;14.05;5.00;;;4.10;71.20;;;;;;4967041;28;88919;-72
2023/01/28 13:41:38;;;;;;;12.30;5.10;;;4.20;70.70;;;;;;4970091;28;89480;-71
2023/01/28 13:44:25;;;;;;;13.15;5.05;;;4.20;69.90;;;;;;4968405;28;87450;-72
2023/01/28 13:47:24;;;;;;;9.50;4.15;;;4.20;70.30;;;;;;4978265;28;88216;-72